sensor_id;sensor_type;location;lat;lon;timestamp;temperature;humidity
6843;DHT22;3460;52.028;8.916;2023-07-29T00:01:47;18.50;99.90
6843;DHT22;3460;52.028;8.916;2023-07-29T00:04:15;18.40;99.90
6843;DHT22;3460;52.028;8.916;2023-07-29T00:06:41;18.40;99.90
6843;DHT22;3460;52.028;8.916;2023-07-29T00:09:08;18.40;99.90
6843;DHT22;3460;52.028;8.916;2023-07-29T00:11:35;18.40;99.90
6843;DHT22;3460;52.028;8.916;2023-07-29T00:14:03;18.30;99.90
6843;DHT22;3460;52.028;8.916;2023-07-29T00:16:30;18.20;99.90
6843;DHT22;3460;52.028;8.916;2023-07-29T00:18:57;18.10;99.90
6843;DHT22;3460;52.028;8.916;2023-07-29T00:21:24;18.00;99.90
6843;DHT22;3460;52.028;8.916;2023-07-29T00:23:51;18.00;99.90
6843;DHT22;3460;52.028;8.916;2023-07-29T00:26:18;17.90;99.90
6843;DHT22;3460;52.028;8.916;2023-07-29T00:28:45;17.90;99.90
6843;DHT22;3460;52.028;8.916;2023-07-29T00:31:13;17.80;99.90
6843;DHT22;3460;52.028;8.916;2023-07-29T00:33:40;17.60;99.90
6843;DHT22;3460;52.028;8.916;2023-07-29T00:36:07;17.60;99.90
6843;DHT22;3460;52.028;8.916;2023-07-29T00:38:34;17.60;99.90
6843;DHT22;3460;52.028;8.916;2023-07-29T00:41:02;17.60;99.90
6843;DHT22;3460;52.028;8.916;2023-07-29T00:43:29;17.60;99.90
6843;DHT22;3460;52.028;8.916;2023-07-29T00:45:56;17.60;99.90
6843;DHT22;3460;52.028;8.916;2023-07-29T00:48:24;17.60;99.90
6843;DHT22;3460;52.028;8.916;2023-07-29T00:50:51;17.60;99.90
6843;DHT22;3460;52.028;8.916;2023-07-29T00:53:18;17.60;99.90
6843;DHT22;3460;52.028;8.916;2023-07-29T00:55:45;17.60;99.90
6843;DHT22;3460;52.028;8.916;2023-07-29T00:58:12;17.70;99.90
6843;DHT22;3460;52.028;8.916;2023-07-29T01:00:39;17.70;99.90
6843;DHT22;3460;52.028;8.916;2023-07-29T01:03:07;17.80;99.90
6843;DHT22;3460;52.028;8.916;2023-07-29T01:05:40;17.90;99.90
6843;DHT22;3460;52.028;8.916;2023-07-29T01:08:19;17.90;99.90
6843;DHT22;3460;52.028;8.916;2023-07-29T01:10:56;18.00;99.90
6843;DHT22;3460;52.028;8.916;2023-07-29T01:13:28;18.10;99.90
6843;DHT22;3460;52.028;8.916;2023-07-29T01:16:02;18.10;99.90
6843;DHT22;3460;52.028;8.916;2023-07-29T01:18:36;18.10;99.90
6843;DHT22;3460;52.028;8.916;2023-07-29T01:21:08;18.10;99.90
6843;DHT22;3460;52.028;8.916;2023-07-29T01:23:36;18.10;99.90
6843;DHT22;3460;52.028;8.916;2023-07-29T01:26:03;18.20;99.90
6843;DHT22;3460;52.028;8.916;2023-07-29T01:28:30;18.20;99.90
6843;DHT22;3460;52.028;8.916;2023-07-29T01:31:03;18.20;99.90
6843;DHT22;3460;52.028;8.916;2023-07-29T01:33:37;18.20;99.90
6843;DHT22;3460;52.028;8.916;2023-07-29T01:36:15;18.20;99.90
6843;DHT22;3460;52.028;8.916;2023-07-29T01:38:46;18.20;99.90
6843;DHT22;3460;52.028;8.916;2023-07-29T01:41:14;18.30;99.90
6843;DHT22;3460;52.028;8.916;2023-07-29T01:43:43;18.20;99.90
6843;DHT22;3460;52.028;8.916;2023-07-29T01:46:12;18.20;99.90
6843;DHT22;3460;52.028;8.916;2023-07-29T01:48:39;18.20;99.90
6843;DHT22;3460;52.028;8.916;2023-07-29T01:51:06;18.20;99.90
6843;DHT22;3460;52.028;8.916;2023-07-29T01:53:33;18.20;99.90
6843;DHT22;3460;52.028;8.916;2023-07-29T01:56:02;18.10;99.90
6843;DHT22;3460;52.028;8.916;2023-07-29T01:58:28;18.10;99.90
6843;DHT22;3460;52.028;8.916;2023-07-29T02:00:55;18.10;99.90
6843;DHT22;3460;52.028;8.916;2023-07-29T02:03:22;18.10;99.90
6843;DHT22;3460;52.028;8.916;2023-07-29T02:05:49;18.10;99.90
6843;DHT22;3460;52.028;8.916;2023-07-29T02:08:16;18.10;99.90
6843;DHT22;3460;52.028;8.916;2023-07-29T02:10:42;18.10;99.90
6843;DHT22;3460;52.028;8.916;2023-07-29T02:13:12;18.10;99.90
6843;DHT22;3460;52.028;8.916;2023-07-29T02:15:39;18.00;99.90
6843;DHT22;3460;52.028;8.916;2023-07-29T02:18:05;18.00;99.90
6843;DHT22;3460;52.028;8.916;2023-07-29T02:20:33;18.00;99.90
6843;DHT22;3460;52.028;8.916;2023-07-29T02:22:59;17.90;99.90
6843;DHT22;3460;52.028;8.916;2023-07-29T02:25:26;17.90;99.90
6843;DHT22;3460;52.028;8.916;2023-07-29T02:27:53;17.90;99.90
6843;DHT22;3460;52.028;8.916;2023-07-29T02:30:22;17.80;99.90
6843;DHT22;3460;52.028;8.916;2023-07-29T02:32:48;17.80;99.90
6843;DHT22;3460;52.028;8.916;2023-07-29T02:35:15;17.80;99.90
6843;DHT22;3460;52.028;8.916;2023-07-29T02:37:42;17.80;99.90
6843;DHT22;3460;52.028;8.916;2023-07-29T02:40:10;17.80;99.90
6843;DHT22;3460;52.028;8.916;2023-07-29T02:42:37;17.80;99.90
6843;DHT22;3460;52.028;8.916;2023-07-29T02:45:04;17.70;99.90
6843;DHT22;3460;52.028;8.916;2023-07-29T02:47:36;17.80;99.90
6843;DHT22;3460;52.028;8.916;2023-07-29T02:50:03;17.80;99.90
6843;DHT22;3460;52.028;8.916;2023-07-29T02:52:31;17.80;99.90
6843;DHT22;3460;52.028;8.916;2023-07-29T02:54:57;17.80;99.90
6843;DHT22;3460;52.028;8.916;2023-07-29T02:57:24;17.70;99.90
6843;DHT22;3460;52.028;8.916;2023-07-29T02:59:51;17.70;99.90
6843;DHT22;3460;52.028;8.916;2023-07-29T03:02:18;17.70;99.90
6843;DHT22;3460;52.028;8.916;2023-07-29T03:04:47;17.70;99.90
6843;DHT22;3460;52.028;8.916;2023-07-29T03:07:14;17.70;99.90
6843;DHT22;3460;52.028;8.916;2023-07-29T03:09:41;17.70;99.90
6843;DHT22;3460;52.028;8.916;2023-07-29T03:12:09;17.70;99.90
6843;DHT22;3460;52.028;8.916;2023-07-29T03:14:36;17.70;99.90
6843;DHT22;3460;52.028;8.916;2023-07-29T03:17:03;17.80;99.90
6843;DHT22;3460;52.028;8.916;2023-07-29T03:19:30;17.80;99.90
6843;DHT22;3460;52.028;8.916;2023-07-29T03:21:59;17.80;99.90
6843;DHT22;3460;52.028;8.916;2023-07-29T03:24:25;17.70;99.90
6843;DHT22;3460;52.028;8.916;2023-07-29T03:26:52;17.70;99.90
6843;DHT22;3460;52.028;8.916;2023-07-29T03:29:19;17.70;99.90
6843;DHT22;3460;52.028;8.916;2023-07-29T03:31:46;17.80;99.90
6843;DHT22;3460;52.028;8.916;2023-07-29T03:34:13;17.80;99.90
6843;DHT22;3460;52.028;8.916;2023-07-29T03:36:39;17.80;99.90
6843;DHT22;3460;52.028;8.916;2023-07-29T03:39:08;17.90;99.90
6843;DHT22;3460;52.028;8.916;2023-07-29T03:41:35;17.80;99.90
6843;DHT22;3460;52.028;8.916;2023-07-29T03:44:02;17.90;99.90
6843;DHT22;3460;52.028;8.916;2023-07-29T03:46:29;17.90;99.90
6843;DHT22;3460;52.028;8.916;2023-07-29T03:48:55;17.90;99.90
6843;DHT22;3460;52.028;8.916;2023-07-29T03:51:22;17.90;99.90
6843;DHT22;3460;52.028;8.916;2023-07-29T03:53:50;17.80;99.90
6843;DHT22;3460;52.028;8.916;2023-07-29T03:56:18;17.80;99.90
6843;DHT22;3460;52.028;8.916;2023-07-29T03:58:46;17.80;99.90
6843;DHT22;3460;52.028;8.916;2023-07-29T04:01:13;17.70;99.90
6843;DHT22;3460;52.028;8.916;2023-07-29T04:03:40;17.70;99.90
6843;DHT22;3460;52.028;8.916;2023-07-29T04:06:07;17.70;99.90
6843;DHT22;3460;52.028;8.916;2023-07-29T04:08:34;17.60;99.90
6843;DHT22;3460;52.028;8.916;2023-07-29T04:11:01;17.60;99.90
6843;DHT22;3460;52.028;8.916;2023-07-29T04:13:29;17.70;99.90
6843;DHT22;3460;52.028;8.916;2023-07-29T04:15:55;17.70;99.90
6843;DHT22;3460;52.028;8.916;2023-07-29T04:18:22;17.70;99.90
6843;DHT22;3460;52.028;8.916;2023-07-29T04:20:49;17.70;99.90
6843;DHT22;3460;52.028;8.916;2023-07-29T04:23:16;17.70;99.90
6843;DHT22;3460;52.028;8.916;2023-07-29T04:25:43;17.70;99.90
6843;DHT22;3460;52.028;8.916;2023-07-29T04:28:09;17.70;99.90
6843;DHT22;3460;52.028;8.916;2023-07-29T04:30:37;17.60;99.90
6843;DHT22;3460;52.028;8.916;2023-07-29T04:33:04;17.60;99.90
6843;DHT22;3460;52.028;8.916;2023-07-29T04:35:31;17.60;99.90
6843;DHT22;3460;52.028;8.916;2023-07-29T04:37:58;17.60;99.90
6843;DHT22;3460;52.028;8.916;2023-07-29T04:40:25;17.60;99.90
6843;DHT22;3460;52.028;8.916;2023-07-29T04:42:52;17.60;99.90
6843;DHT22;3460;52.028;8.916;2023-07-29T04:45:18;17.60;99.90
6843;DHT22;3460;52.028;8.916;2023-07-29T04:47:47;17.70;99.90
6843;DHT22;3460;52.028;8.916;2023-07-29T04:50:13;17.70;99.90
6843;DHT22;3460;52.028;8.916;2023-07-29T04:52:40;17.70;99.90
6843;DHT22;3460;52.028;8.916;2023-07-29T04:55:07;17.70;99.90
6843;DHT22;3460;52.028;8.916;2023-07-29T04:57:34;17.70;99.90
6843;DHT22;3460;52.028;8.916;2023-07-29T05:00:03;17.70;99.90
6843;DHT22;3460;52.028;8.916;2023-07-29T05:02:29;17.70;99.90
6843;DHT22;3460;52.028;8.916;2023-07-29T05:04:58;17.70;99.90
6843;DHT22;3460;52.028;8.916;2023-07-29T05:07:24;17.70;99.90
6843;DHT22;3460;52.028;8.916;2023-07-29T05:09:51;17.70;99.90
6843;DHT22;3460;52.028;8.916;2023-07-29T05:12:18;17.70;99.90
6843;DHT22;3460;52.028;8.916;2023-07-29T05:14:45;17.70;99.90
6843;DHT22;3460;52.028;8.916;2023-07-29T05:17:11;17.80;99.90
6843;DHT22;3460;52.028;8.916;2023-07-29T05:19:38;17.80;99.90
6843;DHT22;3460;52.028;8.916;2023-07-29T05:22:06;17.80;99.90
6843;DHT22;3460;52.028;8.916;2023-07-29T05:24:33;17.80;99.90
6843;DHT22;3460;52.028;8.916;2023-07-29T05:27:00;17.70;99.90
6843;DHT22;3460;52.028;8.916;2023-07-29T05:29:27;17.70;99.90
6843;DHT22;3460;52.028;8.916;2023-07-29T05:31:53;17.70;99.90
6843;DHT22;3460;52.028;8.916;2023-07-29T05:34:20;17.80;99.90
6843;DHT22;3460;52.028;8.916;2023-07-29T05:36:47;17.80;99.90
6843;DHT22;3460;52.028;8.916;2023-07-29T05:39:15;17.80;99.90
6843;DHT22;3460;52.028;8.916;2023-07-29T05:41:42;17.80;99.90
6843;DHT22;3460;52.028;8.916;2023-07-29T05:44:09;17.90;99.90
6843;DHT22;3460;52.028;8.916;2023-07-29T05:46:35;18.00;99.90
6843;DHT22;3460;52.028;8.916;2023-07-29T05:49:02;18.00;99.90
6843;DHT22;3460;52.028;8.916;2023-07-29T05:51:29;18.00;99.90
6843;DHT22;3460;52.028;8.916;2023-07-29T05:53:56;18.00;99.90
6843;DHT22;3460;52.028;8.916;2023-07-29T05:56:24;18.00;99.90
6843;DHT22;3460;52.028;8.916;2023-07-29T05:58:51;18.10;99.90
6843;DHT22;3460;52.028;8.916;2023-07-29T06:01:18;18.10;99.90
6843;DHT22;3460;52.028;8.916;2023-07-29T06:03:46;18.10;99.90
6843;DHT22;3460;52.028;8.916;2023-07-29T06:06:13;18.10;99.90
6843;DHT22;3460;52.028;8.916;2023-07-29T06:08:40;18.20;99.90
6843;DHT22;3460;52.028;8.916;2023-07-29T06:11:07;18.20;99.90
6843;DHT22;3460;52.028;8.916;2023-07-29T06:13:35;18.30;99.90
6843;DHT22;3460;52.028;8.916;2023-07-29T06:16:02;18.30;99.90
6843;DHT22;3460;52.028;8.916;2023-07-29T06:18:29;18.30;99.90
6843;DHT22;3460;52.028;8.916;2023-07-29T06:20:56;18.40;99.90
6843;DHT22;3460;52.028;8.916;2023-07-29T06:23:23;18.40;99.90
6843;DHT22;3460;52.028;8.916;2023-07-29T06:25:50;18.50;99.90
6843;DHT22;3460;52.028;8.916;2023-07-29T06:28:17;18.50;99.90
6843;DHT22;3460;52.028;8.916;2023-07-29T06:30:45;18.50;99.90
6843;DHT22;3460;52.028;8.916;2023-07-29T06:33:12;18.50;99.90
6843;DHT22;3460;52.028;8.916;2023-07-29T06:35:38;18.50;99.90
6843;DHT22;3460;52.028;8.916;2023-07-29T06:38:05;18.60;99.90
6843;DHT22;3460;52.028;8.916;2023-07-29T06:40:32;18.60;99.90
6843;DHT22;3460;52.028;8.916;2023-07-29T06:42:59;18.70;99.90
6843;DHT22;3460;52.028;8.916;2023-07-29T06:45:26;18.70;99.90
6843;DHT22;3460;52.028;8.916;2023-07-29T06:47:54;18.70;99.90
6843;DHT22;3460;52.028;8.916;2023-07-29T06:50:21;18.80;99.90
6843;DHT22;3460;52.028;8.916;2023-07-29T06:52:48;18.70;99.90
6843;DHT22;3460;52.028;8.916;2023-07-29T06:55:14;18.70;99.90
6843;DHT22;3460;52.028;8.916;2023-07-29T06:57:41;18.70;99.90
6843;DHT22;3460;52.028;8.916;2023-07-29T07:00:09;18.70;99.90
6843;DHT22;3460;52.028;8.916;2023-07-29T07:02:36;18.70;99.90
6843;DHT22;3460;52.028;8.916;2023-07-29T07:05:04;18.80;99.90
6843;DHT22;3460;52.028;8.916;2023-07-29T07:07:31;18.80;99.90
6843;DHT22;3460;52.028;8.916;2023-07-29T07:09:58;18.90;99.90
6843;DHT22;3460;52.028;8.916;2023-07-29T07:12:25;19.00;99.90
6843;DHT22;3460;52.028;8.916;2023-07-29T07:14:52;19.00;99.90
6843;DHT22;3460;52.028;8.916;2023-07-29T07:17:18;19.00;99.90
6843;DHT22;3460;52.028;8.916;2023-07-29T07:19:45;19.10;99.90
6843;DHT22;3460;52.028;8.916;2023-07-29T07:22:14;19.10;99.90
6843;DHT22;3460;52.028;8.916;2023-07-29T07:24:41;19.10;99.90
6843;DHT22;3460;52.028;8.916;2023-07-29T07:27:07;19.10;99.90
6843;DHT22;3460;52.028;8.916;2023-07-29T07:29:34;19.10;99.90
6843;DHT22;3460;52.028;8.916;2023-07-29T07:32:01;19.20;99.90
6843;DHT22;3460;52.028;8.916;2023-07-29T07:34:28;19.20;99.90
6843;DHT22;3460;52.028;8.916;2023-07-29T07:36:55;19.20;99.90
6843;DHT22;3460;52.028;8.916;2023-07-29T07:39:23;19.20;99.90
6843;DHT22;3460;52.028;8.916;2023-07-29T07:41:50;19.30;99.90
6843;DHT22;3460;52.028;8.916;2023-07-29T07:44:16;19.30;99.90
6843;DHT22;3460;52.028;8.916;2023-07-29T07:46:45;19.40;99.90
6843;DHT22;3460;52.028;8.916;2023-07-29T07:49:11;19.50;99.90
6843;DHT22;3460;52.028;8.916;2023-07-29T07:51:39;19.50;99.90
6843;DHT22;3460;52.028;8.916;2023-07-29T07:54:06;19.60;99.90
6843;DHT22;3460;52.028;8.916;2023-07-29T07:56:34;19.70;99.90
6843;DHT22;3460;52.028;8.916;2023-07-29T07:59:01;19.80;99.90
6843;DHT22;3460;52.028;8.916;2023-07-29T08:01:27;19.80;99.90
6843;DHT22;3460;52.028;8.916;2023-07-29T08:03:54;20.00;99.90
6843;DHT22;3460;52.028;8.916;2023-07-29T08:06:21;20.00;99.90
6843;DHT22;3460;52.028;8.916;2023-07-29T08:08:48;20.00;99.90
6843;DHT22;3460;52.028;8.916;2023-07-29T08:11:14;20.20;99.90
6843;DHT22;3460;52.028;8.916;2023-07-29T08:13:43;20.10;99.90
6843;DHT22;3460;52.028;8.916;2023-07-29T08:16:09;20.20;99.90
6843;DHT22;3460;52.028;8.916;2023-07-29T08:18:36;20.20;99.90
6843;DHT22;3460;52.028;8.916;2023-07-29T08:21:03;20.20;99.90
6843;DHT22;3460;52.028;8.916;2023-07-29T08:23:30;20.30;99.90
6843;DHT22;3460;52.028;8.916;2023-07-29T08:25:59;20.50;99.90
6843;DHT22;3460;52.028;8.916;2023-07-29T08:28:28;20.70;99.90
6843;DHT22;3460;52.028;8.916;2023-07-29T08:30:56;20.80;99.90
6843;DHT22;3460;52.028;8.916;2023-07-29T08:33:23;20.80;99.90
6843;DHT22;3460;52.028;8.916;2023-07-29T08:35:50;20.90;99.90
6843;DHT22;3460;52.028;8.916;2023-07-29T08:38:17;20.90;99.90
6843;DHT22;3460;52.028;8.916;2023-07-29T08:40:47;20.90;99.90
6843;DHT22;3460;52.028;8.916;2023-07-29T08:43:17;20.90;99.90
6843;DHT22;3460;52.028;8.916;2023-07-29T08:45:46;21.00;99.90
6843;DHT22;3460;52.028;8.916;2023-07-29T08:48:19;21.00;99.90
6843;DHT22;3460;52.028;8.916;2023-07-29T08:50:52;21.00;99.90
6843;DHT22;3460;52.028;8.916;2023-07-29T08:53:19;21.00;99.90
6843;DHT22;3460;52.028;8.916;2023-07-29T08:55:47;21.00;99.90
6843;DHT22;3460;52.028;8.916;2023-07-29T08:58:14;20.90;99.90
6843;DHT22;3460;52.028;8.916;2023-07-29T09:00:42;21.10;99.90
6843;DHT22;3460;52.028;8.916;2023-07-29T09:03:09;21.20;99.90
6843;DHT22;3460;52.028;8.916;2023-07-29T09:05:37;21.40;99.90
6843;DHT22;3460;52.028;8.916;2023-07-29T09:08:04;21.40;99.90
6843;DHT22;3460;52.028;8.916;2023-07-29T09:10:35;21.30;99.90
6843;DHT22;3460;52.028;8.916;2023-07-29T09:13:03;21.20;99.90
6843;DHT22;3460;52.028;8.916;2023-07-29T09:15:29;21.20;99.90
6843;DHT22;3460;52.028;8.916;2023-07-29T09:17:57;21.30;99.90
6843;DHT22;3460;52.028;8.916;2023-07-29T09:20:25;21.30;99.90
6843;DHT22;3460;52.028;8.916;2023-07-29T09:22:54;21.30;99.90
6843;DHT22;3460;52.028;8.916;2023-07-29T09:25:25;21.30;99.90
6843;DHT22;3460;52.028;8.916;2023-07-29T09:27:52;21.30;99.90
6843;DHT22;3460;52.028;8.916;2023-07-29T09:30:19;21.30;99.90
6843;DHT22;3460;52.028;8.916;2023-07-29T09:32:45;21.40;99.90
6843;DHT22;3460;52.028;8.916;2023-07-29T09:35:12;21.50;99.90
6843;DHT22;3460;52.028;8.916;2023-07-29T09:37:40;21.80;99.90
6843;DHT22;3460;52.028;8.916;2023-07-29T09:40:14;22.00;99.90
6843;DHT22;3460;52.028;8.916;2023-07-29T09:42:48;22.20;99.90
6843;DHT22;3460;52.028;8.916;2023-07-29T09:45:20;22.10;99.90
6843;DHT22;3460;52.028;8.916;2023-07-29T09:47:47;22.20;99.90
6843;DHT22;3460;52.028;8.916;2023-07-29T09:50:15;22.00;99.90
6843;DHT22;3460;52.028;8.916;2023-07-29T09:52:42;21.90;99.90
6843;DHT22;3460;52.028;8.916;2023-07-29T09:55:12;21.70;99.90
6843;DHT22;3460;52.028;8.916;2023-07-29T09:57:39;21.50;99.90
6843;DHT22;3460;52.028;8.916;2023-07-29T10:00:07;21.40;99.90
6843;DHT22;3460;52.028;8.916;2023-07-29T10:02:37;21.30;99.90
6843;DHT22;3460;52.028;8.916;2023-07-29T10:05:05;21.40;99.90
6843;DHT22;3460;52.028;8.916;2023-07-29T10:07:33;21.50;99.90
6843;DHT22;3460;52.028;8.916;2023-07-29T10:10:01;21.60;99.90
6843;DHT22;3460;52.028;8.916;2023-07-29T10:12:30;21.60;99.90
6843;DHT22;3460;52.028;8.916;2023-07-29T10:14:59;21.80;99.90
6843;DHT22;3460;52.028;8.916;2023-07-29T10:17:26;22.10;99.90
6843;DHT22;3460;52.028;8.916;2023-07-29T10:19:56;22.30;99.90
6843;DHT22;3460;52.028;8.916;2023-07-29T10:22:25;22.50;99.90
6843;DHT22;3460;52.028;8.916;2023-07-29T10:24:54;22.60;99.90
6843;DHT22;3460;52.028;8.916;2023-07-29T10:27:24;22.70;99.90
6843;DHT22;3460;52.028;8.916;2023-07-29T10:29:55;22.90;99.90
6843;DHT22;3460;52.028;8.916;2023-07-29T10:32:25;22.90;99.90
6843;DHT22;3460;52.028;8.916;2023-07-29T10:34:52;23.10;99.90
6843;DHT22;3460;52.028;8.916;2023-07-29T10:37:19;23.10;99.90
6843;DHT22;3460;52.028;8.916;2023-07-29T10:39:52;23.20;99.90
6843;DHT22;3460;52.028;8.916;2023-07-29T10:42:20;23.10;99.90
6843;DHT22;3460;52.028;8.916;2023-07-29T10:44:48;22.90;99.90
6843;DHT22;3460;52.028;8.916;2023-07-29T10:47:23;22.60;99.90
6843;DHT22;3460;52.028;8.916;2023-07-29T10:49:52;22.70;99.90
6843;DHT22;3460;52.028;8.916;2023-07-29T10:52:40;22.90;99.90
6843;DHT22;3460;52.028;8.916;2023-07-29T10:55:25;23.00;99.90
6843;DHT22;3460;52.028;8.916;2023-07-29T10:57:52;23.10;99.90
6843;DHT22;3460;52.028;8.916;2023-07-29T11:00:31;23.20;99.90
6843;DHT22;3460;52.028;8.916;2023-07-29T11:03:01;23.30;99.90
6843;DHT22;3460;52.028;8.916;2023-07-29T11:05:43;23.30;99.90
6843;DHT22;3460;52.028;8.916;2023-07-29T11:08:22;23.10;99.90
6843;DHT22;3460;52.028;8.916;2023-07-29T11:11:01;23.30;99.90
6843;DHT22;3460;52.028;8.916;2023-07-29T11:13:28;23.30;99.90
6843;DHT22;3460;52.028;8.916;2023-07-29T11:15:55;23.30;99.90
6843;DHT22;3460;52.028;8.916;2023-07-29T11:18:27;23.30;99.90
6843;DHT22;3460;52.028;8.916;2023-07-29T11:20:55;23.00;99.90
6843;DHT22;3460;52.028;8.916;2023-07-29T11:23:28;23.00;99.90
6843;DHT22;3460;52.028;8.916;2023-07-29T11:25:56;23.00;99.90
6843;DHT22;3460;52.028;8.916;2023-07-29T11:28:23;23.10;99.90
6843;DHT22;3460;52.028;8.916;2023-07-29T11:30:51;23.00;99.90
6843;DHT22;3460;52.028;8.916;2023-07-29T11:33:19;23.10;99.90
6843;DHT22;3460;52.028;8.916;2023-07-29T11:35:47;23.10;99.90
6843;DHT22;3460;52.028;8.916;2023-07-29T11:38:15;23.30;99.90
6843;DHT22;3460;52.028;8.916;2023-07-29T11:40:42;23.50;99.90
6843;DHT22;3460;52.028;8.916;2023-07-29T11:43:17;23.80;99.90
6843;DHT22;3460;52.028;8.916;2023-07-29T11:45:44;23.90;99.90
6843;DHT22;3460;52.028;8.916;2023-07-29T11:48:11;24.00;99.90
6843;DHT22;3460;52.028;8.916;2023-07-29T11:50:38;24.10;99.90
6843;DHT22;3460;52.028;8.916;2023-07-29T11:53:06;24.20;99.90
6843;DHT22;3460;52.028;8.916;2023-07-29T11:55:33;24.30;99.90
6843;DHT22;3460;52.028;8.916;2023-07-29T11:58:01;24.30;99.90
6843;DHT22;3460;52.028;8.916;2023-07-29T12:00:28;24.30;99.90
6843;DHT22;3460;52.028;8.916;2023-07-29T12:02:55;24.20;99.90
6843;DHT22;3460;52.028;8.916;2023-07-29T12:05:23;24.30;99.90
6843;DHT22;3460;52.028;8.916;2023-07-29T12:07:51;24.10;99.90
6843;DHT22;3460;52.028;8.916;2023-07-29T12:10:19;23.90;99.90
6843;DHT22;3460;52.028;8.916;2023-07-29T12:12:47;23.80;99.90
6843;DHT22;3460;52.028;8.916;2023-07-29T12:15:23;24.00;99.90
6843;DHT22;3460;52.028;8.916;2023-07-29T12:17:53;24.20;99.90
6843;DHT22;3460;52.028;8.916;2023-07-29T12:20:21;24.30;99.90
6843;DHT22;3460;52.028;8.916;2023-07-29T12:22:52;24.30;99.90
6843;DHT22;3460;52.028;8.916;2023-07-29T12:25:21;24.40;99.90
6843;DHT22;3460;52.028;8.916;2023-07-29T12:27:48;24.70;99.90
6843;DHT22;3460;52.028;8.916;2023-07-29T12:30:15;24.80;99.90
6843;DHT22;3460;52.028;8.916;2023-07-29T12:32:45;24.60;99.90
6843;DHT22;3460;52.028;8.916;2023-07-29T12:35:13;24.50;99.90
6843;DHT22;3460;52.028;8.916;2023-07-29T12:37:40;24.30;99.90
6843;DHT22;3460;52.028;8.916;2023-07-29T12:40:21;24.40;99.90
6843;DHT22;3460;52.028;8.916;2023-07-29T12:42:49;24.40;99.90
6843;DHT22;3460;52.028;8.916;2023-07-29T12:45:16;24.40;99.90
6843;DHT22;3460;52.028;8.916;2023-07-29T12:47:43;24.40;99.90
6843;DHT22;3460;52.028;8.916;2023-07-29T12:50:10;24.30;99.90
6843;DHT22;3460;52.028;8.916;2023-07-29T12:52:37;24.20;99.90
6843;DHT22;3460;52.028;8.916;2023-07-29T12:55:05;24.10;99.90
6843;DHT22;3460;52.028;8.916;2023-07-29T12:57:35;24.10;99.90
6843;DHT22;3460;52.028;8.916;2023-07-29T13:00:02;24.10;99.90
6843;DHT22;3460;52.028;8.916;2023-07-29T13:02:30;24.00;99.90
6843;DHT22;3460;52.028;8.916;2023-07-29T13:04:56;24.00;99.90
6843;DHT22;3460;52.028;8.916;2023-07-29T13:07:23;23.90;99.90
6843;DHT22;3460;52.028;8.916;2023-07-29T13:09:50;24.10;99.90
6843;DHT22;3460;52.028;8.916;2023-07-29T13:12:17;24.20;99.90
6843;DHT22;3460;52.028;8.916;2023-07-29T13:14:45;24.20;99.90
6843;DHT22;3460;52.028;8.916;2023-07-29T13:17:12;24.50;99.90
6843;DHT22;3460;52.028;8.916;2023-07-29T13:19:38;24.60;99.90
6843;DHT22;3460;52.028;8.916;2023-07-29T13:22:05;24.40;99.90
6843;DHT22;3460;52.028;8.916;2023-07-29T13:24:32;24.30;99.90
6843;DHT22;3460;52.028;8.916;2023-07-29T13:26:59;24.10;99.90
6843;DHT22;3460;52.028;8.916;2023-07-29T13:29:26;23.90;99.90
6843;DHT22;3460;52.028;8.916;2023-07-29T13:31:54;23.80;99.90
6843;DHT22;3460;52.028;8.916;2023-07-29T13:34:21;23.80;99.90
6843;DHT22;3460;52.028;8.916;2023-07-29T13:36:47;23.90;99.90
6843;DHT22;3460;52.028;8.916;2023-07-29T13:39:15;24.00;99.90
6843;DHT22;3460;52.028;8.916;2023-07-29T13:41:41;23.90;99.90
6843;DHT22;3460;52.028;8.916;2023-07-29T13:44:08;23.90;99.90
6843;DHT22;3460;52.028;8.916;2023-07-29T13:46:35;24.10;99.90
6843;DHT22;3460;52.028;8.916;2023-07-29T13:49:03;24.40;99.90
6843;DHT22;3460;52.028;8.916;2023-07-29T13:51:30;24.40;99.90
6843;DHT22;3460;52.028;8.916;2023-07-29T13:53:57;24.60;99.90
6843;DHT22;3460;52.028;8.916;2023-07-29T13:56:23;24.60;99.90
6843;DHT22;3460;52.028;8.916;2023-07-29T13:58:50;24.50;99.90
6843;DHT22;3460;52.028;8.916;2023-07-29T14:01:18;24.60;99.90
6843;DHT22;3460;52.028;8.916;2023-07-29T14:03:44;24.70;99.90
6843;DHT22;3460;52.028;8.916;2023-07-29T14:06:12;24.70;99.90
6843;DHT22;3460;52.028;8.916;2023-07-29T14:08:39;24.80;99.90
6843;DHT22;3460;52.028;8.916;2023-07-29T14:11:07;24.80;99.90
6843;DHT22;3460;52.028;8.916;2023-07-29T14:13:34;24.70;99.90
6843;DHT22;3460;52.028;8.916;2023-07-29T14:16:01;24.50;99.90
6843;DHT22;3460;52.028;8.916;2023-07-29T14:18:30;24.30;99.90
6843;DHT22;3460;52.028;8.916;2023-07-29T14:20:57;24.00;99.90
6843;DHT22;3460;52.028;8.916;2023-07-29T14:23:25;23.90;99.90
6843;DHT22;3460;52.028;8.916;2023-07-29T14:25:52;23.80;99.90
6843;DHT22;3460;52.028;8.916;2023-07-29T14:28:18;23.80;99.90
6843;DHT22;3460;52.028;8.916;2023-07-29T14:30:46;23.70;99.90
6843;DHT22;3460;52.028;8.916;2023-07-29T14:33:13;23.60;99.90
6843;DHT22;3460;52.028;8.916;2023-07-29T14:35:40;23.60;99.90
6843;DHT22;3460;52.028;8.916;2023-07-29T14:38:07;23.80;99.90
6843;DHT22;3460;52.028;8.916;2023-07-29T14:40:35;23.90;99.90
6843;DHT22;3460;52.028;8.916;2023-07-29T14:43:01;23.80;99.90
6843;DHT22;3460;52.028;8.916;2023-07-29T14:45:28;23.70;99.90
6843;DHT22;3460;52.028;8.916;2023-07-29T14:47:55;23.70;99.90
6843;DHT22;3460;52.028;8.916;2023-07-29T14:50:22;23.60;99.90
6843;DHT22;3460;52.028;8.916;2023-07-29T14:52:49;23.50;99.90
6843;DHT22;3460;52.028;8.916;2023-07-29T14:55:16;23.50;99.90
6843;DHT22;3460;52.028;8.916;2023-07-29T14:57:44;23.40;99.90
6843;DHT22;3460;52.028;8.916;2023-07-29T15:00:12;23.20;99.90
6843;DHT22;3460;52.028;8.916;2023-07-29T15:02:40;23.10;99.90
6843;DHT22;3460;52.028;8.916;2023-07-29T15:05:07;23.00;99.90
6843;DHT22;3460;52.028;8.916;2023-07-29T15:07:34;22.90;99.90
6843;DHT22;3460;52.028;8.916;2023-07-29T15:10:01;22.80;99.90
6843;DHT22;3460;52.028;8.916;2023-07-29T15:12:28;22.80;99.90
6843;DHT22;3460;52.028;8.916;2023-07-29T15:14:56;22.70;99.90
6843;DHT22;3460;52.028;8.916;2023-07-29T15:17:23;22.70;99.90
6843;DHT22;3460;52.028;8.916;2023-07-29T15:19:49;22.80;99.90
6843;DHT22;3460;52.028;8.916;2023-07-29T15:22:16;22.70;99.90
6843;DHT22;3460;52.028;8.916;2023-07-29T15:24:43;22.60;99.90
6843;DHT22;3460;52.028;8.916;2023-07-29T15:27:10;22.60;99.90
6843;DHT22;3460;52.028;8.916;2023-07-29T15:29:37;22.50;99.90
6843;DHT22;3460;52.028;8.916;2023-07-29T15:32:06;22.50;99.90
6843;DHT22;3460;52.028;8.916;2023-07-29T15:34:33;22.40;99.90
6843;DHT22;3460;52.028;8.916;2023-07-29T15:37:00;22.40;99.90
6843;DHT22;3460;52.028;8.916;2023-07-29T15:39:28;22.30;99.90
6843;DHT22;3460;52.028;8.916;2023-07-29T15:41:55;22.30;99.90
6843;DHT22;3460;52.028;8.916;2023-07-29T15:44:22;22.30;99.90
6843;DHT22;3460;52.028;8.916;2023-07-29T15:46:48;22.20;99.90
6843;DHT22;3460;52.028;8.916;2023-07-29T15:49:18;22.10;99.90
6843;DHT22;3460;52.028;8.916;2023-07-29T15:51:45;21.90;99.90
6843;DHT22;3460;52.028;8.916;2023-07-29T15:54:12;21.70;99.90
6843;DHT22;3460;52.028;8.916;2023-07-29T15:56:38;21.40;99.90
6843;DHT22;3460;52.028;8.916;2023-07-29T15:59:06;21.30;99.90
6843;DHT22;3460;52.028;8.916;2023-07-29T16:01:33;21.00;99.90
6843;DHT22;3460;52.028;8.916;2023-07-29T16:04:00;20.80;99.90
6843;DHT22;3460;52.028;8.916;2023-07-29T16:06:29;20.60;99.90